Georgetown, MA (01833)

4:41 AM EDT on March 31, 2015 (GMT -0400)
APRSWXNET | | Change Station
CLOSE
Current Station
Personal Weather Station
Location: Boxford, MA
Elevation: 164 ft
Nearby Weather Stations

Elev 164 ft 42.70 °N, 71.02 °W | Updated 37 minutes ago

Partly Cloudy
Partly Cloudy
34 °F
Feels Like 34 °F
N
0
Wind Variable Wind from SW
Gusts 2.0 mph

Today
High -- | Low -- °F
--% Chance of Precip.
Yesterday
High -- | Low -- °F
Precip. -- in
6:28 AM 7:08 PM
Waxing Gibbous, 85% visible
Pressure 29.70 in
Visibility 10.0 miles
Clouds Few 11000 ft
Windchill 34 °F
Dew Point 28 °F
Humidity 79%
Rainfall in
Snow Depth Not available.
UV 0 out of 12
Pollen 5.90 out of 12
Air Quality Not available.
Flu Activity Not available.
METAR KLWM 310754Z AUTO 25008KT 10SM FEW110 02/M03 A2969 RMK AO2 SLP055 T00171033

More Conditions Fewer Conditions

Pressure 29.70 in
Visibility 10.0 miles
Clouds Few 11000 ft
Windchill 34 °F
Dew Point 28 °F
Humidity 79%
Rainfall in
Snow Depth Not available.
UV 0 out of 12
Pollen 5.90 out of 12
Air Quality Not available.
Flu Activity Not available.
METAR KLWM 310754Z AUTO 25008KT 10SM FEW110 02/M03 A2969 RMK AO2 SLP055 T00171033

More Conditions Fewer Conditions

10-Day Weather Forecast

Almanac

Astronomy

Mar. 31, 2015 Rise Set
Actual Time
Civil Twilight
Nautical Twilight
Astronomical Twilight
Moon
Length of Visible Light
Length of Day
Tomorrow will be .
, % of the Moon is Illuminated

Today's Extremes

State Highs State Lows

Community

WunderPhotos

Upload Photos

1,809,732 photos uploaded!

WunderBlogs® & News

Nearby

Air Quality

  Air Quality AQ Index Pollutant
Not available.

Snow Depth

Station Depth Elevation

Earthquake Activity

City Distance Mag. Time & Date
Minimum magnitude displayed is 2.5.

Coastal Water Temperatures

Place Temperature

Stations

Nearby Weather Stations

Station Location Temp. Windchill Dew Point Humidity Wind Precip. Elev Updated Type